Time;durP1;ratioP1;P1;durP2;ratioP2;P2;SDS_P1;SDS_P2;PMS_P1;PMS_P2;Temp;Humidity;BMP_temperature;BMP_pressure;BME280_temperature;BME280_humidity;BME280_pressure;Samples;Min_cycle;Max_cycle;Signal;HPM_P1;HPM_P2
2022/04/23 00:02:18;;;;;;;0.47;0.22;;;11.10;99.90;;;;;;5047303;28;20047;-67
2022/04/23 00:04:44;;;;;;;1.58;0.82;;;11.00;99.90;;;;;;5052099;28;20049;-67
2022/04/23 00:07:09;;;;;;;1.08;0.50;;;11.00;99.90;;;;;;5047409;28;20052;-68
2022/04/23 00:09:35;;;;;;;1.27;0.63;;;11.00;99.90;;;;;;5051535;28;20021;-67
2022/04/23 00:12:01;;;;;;;1.30;0.73;;;10.90;99.90;;;;;;5049430;28;20029;-67
2022/04/23 00:14:27;;;;;;;0.57;0.30;;;10.90;99.90;;;;;;5050266;28;20029;-67
2022/04/23 00:16:53;;;;;;;2.45;0.90;;;10.80;99.90;;;;;;5045650;28;20446;-66
2022/04/23 00:19:20;;;;;;;0.52;0.30;;;10.80;99.90;;;;;;5049019;28;20118;-67
2022/04/23 00:21:46;;;;;;;0.50;0.25;;;10.80;99.90;;;;;;5046251;28;20029;-66
2022/04/23 00:24:12;;;;;;;0.38;0.20;;;10.70;99.90;;;;;;5063531;28;20021;-66
2022/04/23 00:26:37;;;;;;;0.90;0.45;;;10.70;99.90;;;;;;5051549;28;20485;-66
2022/04/23 00:29:03;;;;;;;1.00;0.38;;;10.70;99.90;;;;;;5048299;28;20033;-66
2022/04/23 00:31:29;;;;;;;0.57;0.30;;;10.60;99.90;;;;;;5048653;28;20393;-66
2022/04/23 00:33:54;;;;;;;0.40;0.22;;;10.60;99.90;;;;;;5053402;28;20041;-67
2022/04/23 00:36:23;;;;;;;0.68;0.30;;;10.50;99.90;;;;;;5043810;28;20462;-68
2022/04/23 00:38:52;;;;;;;0.40;0.20;;;10.50;99.90;;;;;;5045238;28;20085;-66
2022/04/23 00:44:07;;;;;;;0.93;0.30;;;10.40;99.90;;;;;;5050720;28;20063;-66
2022/04/23 00:46:33;;;;;;;1.40;0.57;;;10.40;99.90;;;;;;5046413;28;20037;-66
2022/04/23 00:48:59;;;;;;;0.80;0.68;;;10.40;99.90;;;;;;5043699;28;20071;-66
2022/04/23 00:51:29;;;;;;;0.88;0.38;;;10.30;99.90;;;;;;5047479;28;20017;-66
2022/04/23 00:53:56;;;;;;;0.52;0.30;;;10.30;99.90;;;;;;5050888;28;20028;-68
2022/04/23 00:56:23;;;;;;;1.25;0.52;;;10.30;99.90;;;;;;5047105;28;20060;-66
2022/04/23 00:58:50;;;;;;;0.95;0.30;;;10.30;99.90;;;;;;5046878;28;20053;-66
2022/04/23 01:01:16;;;;;;;1.02;0.40;;;10.20;99.90;;;;;;5040989;28;20099;-66
2022/04/23 01:03:45;;;;;;;0.60;0.30;;;10.10;99.90;;;;;;5050749;28;20025;-66
2022/04/23 01:06:11;;;;;;;0.85;0.30;;;10.10;99.90;;;;;;5054588;28;20020;-66
2022/04/23 01:08:37;;;;;;;1.02;0.63;;;10.00;99.90;;;;;;5049116;28;20527;-66
2022/04/23 01:11:03;;;;;;;0.73;0.30;;;10.00;99.90;;;;;;5056026;28;20035;-66
2022/04/23 01:13:29;;;;;;;0.68;0.30;;;10.00;99.90;;;;;;5047328;28;20034;-66
2022/04/23 01:16:06;;;;;;;0.75;0.30;;;9.90;99.90;;;;;;5051213;28;20389;-66
2022/04/23 01:18:34;;;;;;;0.57;0.30;;;9.90;99.90;;;;;;5049242;28;20105;-66
2022/04/23 01:21:01;;;;;;;0.73;0.30;;;9.80;99.90;;;;;;5053544;28;20041;-66
2022/04/23 01:23:29;;;;;;;0.88;0.30;;;9.80;99.90;;;;;;5048558;28;20369;-66
2022/04/23 01:25:55;;;;;;;0.38;0.20;;;9.70;99.90;;;;;;5059590;28;20049;-67
2022/04/23 01:28:22;;;;;;;0.50;0.30;;;9.80;99.90;;;;;;5053028;28;20036;-67
2022/04/23 01:30:52;;;;;;;0.63;0.30;;;9.70;99.90;;;;;;5052031;28;20057;-67
2022/04/23 01:33:19;;;;;;;1.17;0.77;;;9.70;99.90;;;;;;5053969;28;20044;-65
2022/04/23 01:35:44;;;;;;;0.77;0.30;;;9.70;99.90;;;;;;5053215;28;20074;-66
2022/04/23 01:38:11;;;;;;;0.93;0.50;;;9.60;99.90;;;;;;5059060;28;20025;-66
2022/04/23 01:40:36;;;;;;;0.63;0.30;;;9.60;99.90;;;;;;5056296;28;20481;-66
2022/04/23 01:43:02;;;;;;;1.08;0.57;;;9.70;99.90;;;;;;5057605;28;20390;-65
2022/04/23 01:45:28;;;;;;;0.57;0.30;;;9.60;99.90;;;;;;5050726;28;20530;-66
2022/04/23 01:47:53;;;;;;;1.00;0.32;;;9.60;99.90;;;;;;5057734;28;20026;-65
2022/04/23 01:50:19;;;;;;;1.20;0.50;;;9.60;99.90;;;;;;5052516;28;20033;-66
2022/04/23 01:52:46;;;;;;;2.03;0.68;;;9.60;99.90;;;;;;5046348;28;20052;-65
2022/04/23 01:55:12;;;;;;;1.02;0.32;;;9.60;99.90;;;;;;5043938;28;20061;-65
2022/04/23 01:57:38;;;;;;;1.00;0.30;;;9.60;99.90;;;;;;5048454;28;20103;-66
2022/04/23 02:00:10;;;;;;;0.20;0.20;;;9.60;99.90;;;;;;5050867;28;20045;-66
2022/04/23 02:02:37;;;;;;;0.85;0.30;;;9.70;99.90;;;;;;5045715;28;20312;-67
2022/04/23 02:05:07;;;;;;;0.68;0.30;;;9.60;99.90;;;;;;5046771;28;20034;-66
2022/04/23 02:07:37;;;;;;;5.35;0.60;;;9.60;99.90;;;;;;5051529;28;20397;-66
2022/04/23 02:10:04;;;;;;;1.80;0.98;;;9.60;99.90;;;;;;5049907;28;20068;-67
2022/04/23 02:12:30;;;;;;;0.65;0.30;;;9.60;99.90;;;;;;5051488;28;20021;-66
2022/04/23 02:14:55;;;;;;;0.93;0.35;;;9.60;99.90;;;;;;5054155;28;20121;-66
2022/04/23 02:17:21;;;;;;;0.73;0.30;;;9.50;99.90;;;;;;5050902;28;20068;-66
2022/04/23 02:19:46;;;;;;;0.82;0.40;;;9.50;99.90;;;;;;5050189;28;20537;-66
2022/04/23 02:22:12;;;;;;;0.32;0.20;;;9.60;99.90;;;;;;5059761;28;20025;-66
2022/04/23 02:24:38;;;;;;;0.30;0.20;;;9.60;99.90;;;;;;5044975;28;20030;-66
2022/04/23 02:27:03;;;;;;;0.88;0.30;;;9.60;99.90;;;;;;5051906;28;20017;-66
2022/04/23 02:29:29;;;;;;;0.68;0.30;;;9.50;99.90;;;;;;5050648;28;20029;-65
2022/04/23 02:31:55;;;;;;;0.57;0.30;;;9.50;99.90;;;;;;5045504;28;20033;-67
2022/04/23 02:34:21;;;;;;;0.63;0.30;;;9.50;99.90;;;;;;5047258;28;20042;-66
2022/04/23 02:36:47;;;;;;;0.80;0.52;;;9.50;99.90;;;;;;5035053;28;20044;-67
2022/04/23 02:39:13;;;;;;;0.77;0.30;;;9.50;99.90;;;;;;5056235;28;20041;-67
2022/04/23 02:41:39;;;;;;;0.50;0.30;;;9.50;99.90;;;;;;5058346;28;20037;-67
2022/04/23 02:44:05;;;;;;;1.75;0.95;;;9.50;99.90;;;;;;5046795;28;20524;-67
2022/04/23 02:46:31;;;;;;;0.47;0.25;;;9.60;99.90;;;;;;5051039;28;20052;-67
2022/04/23 02:48:58;;;;;;;0.55;0.30;;;9.60;99.90;;;;;;5056953;28;20366;-67
2022/04/23 02:51:24;;;;;;;0.38;0.30;;;9.60;99.90;;;;;;5046636;28;20162;-67
2022/04/23 02:53:49;;;;;;;1.50;0.40;;;9.60;99.90;;;;;;5056420;28;20029;-67
2022/04/23 02:56:17;;;;;;;0.90;0.30;;;9.50;99.90;;;;;;5046875;28;20037;-67
2022/04/23 02:58:43;;;;;;;0.93;0.38;;;9.50;99.90;;;;;;5050690;28;20026;-67
2022/04/23 03:01:11;;;;;;;1.30;0.57;;;9.60;99.90;;;;;;5050952;28;20061;-67
2022/04/23 03:03:39;;;;;;;3.05;1.20;;;9.50;99.90;;;;;;5049805;28;20033;-67
2022/04/23 03:06:07;;;;;;;0.80;0.50;;;9.50;99.90;;;;;;5049990;28;20047;-67
2022/04/23 03:08:37;;;;;;;0.85;0.52;;;9.40;99.90;;;;;;5054534;28;20112;-67
2022/04/23 03:11:03;;;;;;;0.50;0.25;;;9.40;99.90;;;;;;5054985;28;20033;-67
2022/04/23 03:13:29;;;;;;;1.27;0.47;;;9.40;99.90;;;;;;5056591;28;20039;-67
2022/04/23 03:15:56;;;;;;;1.17;0.40;;;9.40;99.90;;;;;;5051373;28;20077;-67
2022/04/23 03:18:22;;;;;;;0.50;0.28;;;9.30;99.90;;;;;;5062375;28;20033;-67
2022/04/23 03:20:49;;;;;;;0.70;0.40;;;9.30;99.90;;;;;;5054681;28;20046;-67
2022/04/23 03:23:14;;;;;;;0.70;0.30;;;9.30;99.90;;;;;;5056868;28;20047;-67
2022/04/23 03:25:41;;;;;;;0.43;0.40;;;9.20;99.90;;;;;;5044642;28;20037;-67
2022/04/23 03:28:07;;;;;;;0.93;0.80;;;9.20;99.90;;;;;;5060392;28;20025;-67
2022/04/23 03:30:33;;;;;;;0.55;0.30;;;9.20;99.90;;;;;;5053173;28;20025;-67
2022/04/23 03:32:59;;;;;;;0.68;0.30;;;9.20;99.90;;;;;;5048860;28;20097;-67
2022/04/23 03:35:26;;;;;;;0.98;0.50;;;9.20;99.90;;;;;;5043316;28;20727;-67
2022/04/23 03:37:52;;;;;;;0.60;0.30;;;9.20;99.90;;;;;;5053948;28;20044;-67
2022/04/23 03:40:18;;;;;;;0.50;0.30;;;9.10;99.90;;;;;;5057306;28;20050;-68
2022/04/23 03:42:48;;;;;;;0.50;0.30;;;9.10;99.90;;;;;;5055393;28;20025;-67
2022/04/23 03:45:15;;;;;;;0.68;0.30;;;9.10;99.90;;;;;;5043870;28;20036;-67
2022/04/23 03:47:45;;;;;;;0.70;0.35;;;9.10;99.90;;;;;;5052484;28;20065;-67
2022/04/23 03:50:11;;;;;;;1.20;0.40;;;9.10;99.90;;;;;;5057447;28;20054;-67
2022/04/23 03:52:37;;;;;;;0.77;0.38;;;9.00;99.90;;;;;;5049547;28;20025;-67
2022/04/23 03:55:04;;;;;;;0.20;0.20;;;9.00;99.90;;;;;;5049659;28;20032;-67
2022/04/23 03:57:30;;;;;;;0.63;0.40;;;9.00;99.90;;;;;;5058619;28;20025;-67
2022/04/23 03:59:56;;;;;;;1.27;0.40;;;8.90;99.90;;;;;;5058279;28;20053;-67
2022/04/23 04:02:22;;;;;;;0.35;0.25;;;8.90;99.90;;;;;;5045912;28;20643;-67
2022/04/23 04:04:48;;;;;;;1.15;0.40;;;8.90;99.90;;;;;;5047890;28;20031;-67
2022/04/23 04:07:18;;;;;;;0.85;0.40;;;8.80;99.90;;;;;;5043602;28;20120;-67
2022/04/23 04:09:43;;;;;;;0.52;0.28;;;8.80;99.90;;;;;;5046587;28;20610;-67
2022/04/23 04:12:10;;;;;;;0.68;0.30;;;8.80;99.90;;;;;;5054620;28;20044;-67
2022/04/23 04:14:36;;;;;;;0.80;0.57;;;8.80;99.90;;;;;;5054696;28;20036;-67
2022/04/23 04:17:05;;;;;;;0.80;0.50;;;8.80;99.90;;;;;;5055934;28;20695;-67
2022/04/23 04:19:32;;;;;;;0.38;0.20;;;8.70;99.90;;;;;;5055849;28;20072;-66
2022/04/23 04:21:58;;;;;;;0.82;0.73;;;8.80;99.90;;;;;;5052144;28;20038;-66
2022/04/23 04:24:26;;;;;;;1.15;0.88;;;8.70;99.90;;;;;;5051650;28;20029;-66
2022/04/23 04:26:52;;;;;;;0.52;0.40;;;8.70;99.90;;;;;;5044672;28;20033;-66
2022/04/23 04:29:18;;;;;;;0.98;0.50;;;8.80;99.90;;;;;;5049167;28;20416;-66
2022/04/23 04:31:47;;;;;;;0.82;0.40;;;8.70;99.90;;;;;;5056033;28;20064;-66
2022/04/23 04:34:28;;;;;;;1.35;0.60;;;8.70;99.90;;;;;;5048283;28;20017;-66
2022/04/23 04:37:08;;;;;;;1.43;0.70;;;8.70;99.90;;;;;;5051677;28;20392;-66
2022/04/23 04:39:35;;;;;;;0.52;0.30;;;8.60;99.90;;;;;;5060829;28;20174;-66
2022/04/23 04:42:01;;;;;;;1.33;0.40;;;8.60;99.90;;;;;;5062308;28;20093;-66
2022/04/23 04:44:27;;;;;;;0.20;0.20;;;8.60;99.90;;;;;;5058223;28;20115;-66
2022/04/23 04:46:53;;;;;;;0.80;0.43;;;8.60;99.90;;;;;;5056361;28;20035;-66
2022/04/23 04:49:19;;;;;;;0.90;0.30;;;8.60;99.90;;;;;;5051433;28;20036;-66
2022/04/23 04:51:45;;;;;;;4.78;0.68;;;8.60;99.90;;;;;;5059689;28;20093;-66
2022/04/23 04:54:10;;;;;;;1.10;0.38;;;8.70;99.90;;;;;;5051770;28;20039;-66
2022/04/23 04:56:36;;;;;;;0.65;0.30;;;8.60;99.90;;;;;;5056664;28;20030;-67
2022/04/23 04:59:02;;;;;;;0.20;0.20;;;8.70;99.90;;;;;;5056784;28;20032;-67
2022/04/23 05:01:28;;;;;;;0.70;0.30;;;8.70;99.90;;;;;;5061840;28;20029;-66
2022/04/23 05:03:54;;;;;;;1.05;0.30;;;8.70;99.90;;;;;;5059015;28;20021;-66
2022/04/23 05:06:21;;;;;;;0.95;0.30;;;8.70;99.90;;;;;;5051668;28;20040;-66
2022/04/23 05:08:46;;;;;;;0.38;0.20;;;8.70;99.90;;;;;;5055161;28;20075;-67
2022/04/23 05:11:12;;;;;;;0.45;0.28;;;8.80;99.90;;;;;;5045762;28;20025;-66
2022/04/23 05:13:38;;;;;;;0.55;0.30;;;8.90;99.90;;;;;;5046143;28;20116;-66
2022/04/23 05:16:07;;;;;;;1.23;0.40;;;8.90;99.90;;;;;;5050528;28;20025;-66
2022/04/23 05:18:34;;;;;;;1.13;0.50;;;8.90;99.90;;;;;;5045944;28;20103;-66
2022/04/23 05:21:00;;;;;;;0.90;0.40;;;8.90;99.90;;;;;;5047361;28;20049;-66
2022/04/23 05:23:26;;;;;;;0.90;0.38;;;9.00;99.90;;;;;;5044710;28;20057;-66
2022/04/23 05:25:52;;;;;;;1.38;0.73;;;9.10;99.90;;;;;;5055016;28;20021;-66
2022/04/23 05:28:18;;;;;;;2.13;0.68;;;9.10;99.90;;;;;;5047549;28;20036;-66
2022/04/23 05:30:45;;;;;;;1.45;0.57;;;9.20;99.90;;;;;;5055357;28;20021;-66
2022/04/23 05:33:10;;;;;;;0.63;0.30;;;9.20;99.90;;;;;;5054767;28;20463;-66
2022/04/23 05:35:36;;;;;;;0.68;0.30;;;9.30;99.90;;;;;;5064870;28;20040;-66
2022/04/23 05:38:02;;;;;;;1.40;0.60;;;9.30;99.90;;;;;;5058511;28;20075;-66
2022/04/23 05:40:28;;;;;;;0.73;0.32;;;9.40;99.90;;;;;;5047571;28;20102;-66
2022/04/23 05:42:57;;;;;;;0.75;0.30;;;9.40;99.90;;;;;;5045654;28;20053;-66
2022/04/23 05:45:27;;;;;;;1.95;1.00;;;9.40;99.90;;;;;;5043426;28;20034;-66
2022/04/23 05:47:53;;;;;;;1.10;0.40;;;9.60;99.90;;;;;;5049327;28;20029;-66
2022/04/23 05:50:19;;;;;;;1.02;0.40;;;9.80;99.90;;;;;;5060961;28;20037;-66
2022/04/23 05:52:45;;;;;;;1.60;1.30;;;9.90;99.90;;;;;;5045395;28;20087;-66
2022/04/23 05:55:12;;;;;;;1.02;0.40;;;10.20;99.90;;;;;;5044458;28;20030;-67
2022/04/23 05:57:38;;;;;;;0.65;0.30;;;10.50;99.90;;;;;;5045885;28;20025;-67
2022/04/23 06:00:09;;;;;;;1.92;1.00;;;10.60;99.90;;;;;;5060734;28;20045;-67
2022/04/23 06:02:35;;;;;;;1.15;0.40;;;10.90;99.90;;;;;;5043559;28;20029;-66
2022/04/23 06:05:02;;;;;;;0.40;0.22;;;11.20;99.90;;;;;;5061584;28;20140;-66
2022/04/23 06:07:27;;;;;;;1.00;0.40;;;11.30;99.90;;;;;;5058459;28;20025;-66
2022/04/23 06:09:53;;;;;;;0.73;0.30;;;11.80;99.90;;;;;;5054602;28;20055;-66
2022/04/23 06:12:19;;;;;;;0.63;0.45;;;12.30;99.90;;;;;;5056195;28;20041;-66
2022/04/23 06:14:44;;;;;;;0.40;0.20;;;13.00;99.90;;;;;;5058883;28;20036;-66
2022/04/23 06:17:12;;;;;;;1.15;0.50;;;13.20;99.90;;;;;;5048405;28;20078;-66
2022/04/23 06:19:41;;;;;;;1.33;0.77;;;13.80;99.90;;;;;;5044404;28;20049;-66
2022/04/23 06:22:07;;;;;;;0.75;0.30;;;14.50;99.90;;;;;;5051237;28;20029;-65
2022/04/23 06:24:34;;;;;;;1.48;0.65;;;14.90;99.90;;;;;;5048254;28;20049;-65
2022/04/23 06:27:00;;;;;;;1.10;0.50;;;15.10;99.90;;;;;;5042133;28;20142;-81
2022/04/23 06:29:26;;;;;;;0.38;0.22;;;14.90;99.90;;;;;;5054405;28;20112;-86
2022/04/23 06:31:52;;;;;;;1.83;0.60;;;15.70;99.90;;;;;;5041409;28;20037;-77
2022/04/23 06:34:18;;;;;;;0.95;0.30;;;15.70;99.90;;;;;;5041075;28;20034;-66
2022/04/23 06:36:44;;;;;;;0.52;0.40;;;16.10;99.90;;;;;;5047085;28;20022;-67
2022/04/23 06:39:10;;;;;;;1.48;0.85;;;15.60;99.90;;;;;;5044768;28;20040;-67
2022/04/23 06:41:35;;;;;;;0.60;0.35;;;16.20;99.90;;;;;;5048826;28;20018;-67
2022/04/23 06:44:01;;;;;;;1.10;0.43;;;16.20;99.90;;;;;;5049231;28;20052;-67
2022/04/23 06:46:27;;;;;;;1.35;0.80;;;16.30;99.90;;;;;;5046308;28;20093;-67
2022/04/23 06:48:53;;;;;;;0.95;0.30;;;16.60;97.40;;;;;;5048484;28;20048;-67
2022/04/23 06:51:21;;;;;;;0.82;0.30;;;16.50;97.90;;;;;;5039862;28;20033;-68
2022/04/23 06:53:46;;;;;;;1.40;0.65;;;17.00;99.90;;;;;;5046691;28;20029;-79
2022/04/23 06:56:12;;;;;;;0.88;0.60;;;16.90;97.10;;;;;;5039932;28;20075;-76
2022/04/23 06:58:38;;;;;;;1.70;0.95;;;16.60;98.60;;;;;;5046321;28;20029;-80
2022/04/23 07:01:03;;;;;;;0.85;0.60;;;16.80;94.70;;;;;;5040047;28;20056;-67
2022/04/23 07:03:29;;;;;;;1.02;0.38;;;16.10;99.80;;;;;;5040554;28;20017;-68
2022/04/23 07:05:55;;;;;;;0.93;0.35;;;15.60;99.60;;;;;;5050304;28;20381;-67
2022/04/23 07:08:21;;;;;;;0.43;0.20;;;15.50;99.90;;;;;;5043045;28;20025;-68
2022/04/23 07:10:46;;;;;;;1.13;0.40;;;15.00;99.90;;;;;;5050961;28;20097;-68
2022/04/23 07:13:12;;;;;;;1.17;0.40;;;15.40;99.90;;;;;;5056605;28;20026;-68
2022/04/23 07:15:41;;;;;;;1.08;0.50;;;15.50;99.90;;;;;;5071334;28;20044;-68
2022/04/23 07:18:07;;;;;;;1.40;0.60;;;14.90;99.90;;;;;;5083788;28;20074;-68
2022/04/23 07:20:34;;;;;;;1.58;0.57;;;15.10;99.90;;;;;;5050583;28;20532;-68
2022/04/23 07:25:44;;;;;;;0.98;0.32;;;15.50;99.90;;;;;;5061152;28;20051;-67
2022/04/23 07:28:10;;;;;;;1.55;0.75;;;14.80;99.90;;;;;;5057087;28;20040;-68
2022/04/23 07:30:36;;;;;;;0.90;0.30;;;15.20;99.90;;;;;;5047122;28;20058;-68
2022/04/23 07:33:03;;;;;;;2.20;1.25;;;15.50;99.90;;;;;;5053528;28;20101;-68
2022/04/23 07:38:21;;;;;;;1.40;0.57;;;15.00;99.90;;;;;;5040590;28;20052;-68
2022/04/23 07:40:47;;;;;;;1.30;0.43;;;15.40;99.90;;;;;;5060410;28;20025;-68
2022/04/23 07:43:14;;;;;;;0.88;0.25;;;15.50;99.90;;;;;;5054534;28;20017;-68
2022/04/23 07:45:42;;;;;;;1.10;0.30;;;15.90;99.90;;;;;;5053764;28;20030;-68
2022/04/23 07:48:09;;;;;;;0.43;0.20;;;16.30;97.70;;;;;;5048646;28;20040;-68
2022/04/23 07:50:36;;;;;;;1.27;0.50;;;17.20;97.60;;;;;;5062057;28;20021;-69
2022/04/23 07:53:02;;;;;;;1.08;0.32;;;17.40;75.30;;;;;;5052515;28;20494;-70
2022/04/23 07:55:30;;;;;;;1.35;0.52;;;18.60;88.70;;;;;;5043580;28;20485;-69
2022/04/23 07:58:06;;;;;;;0.77;0.28;;;19.00;60.50;;;;;;5042548;28;20030;-70
2022/04/23 08:00:34;;;;;;;0.45;0.15;;;18.40;57.10;;;;;;5062834;28;20056;-67
2022/04/23 08:03:02;;;;;;;0.32;0.13;;;19.90;62.00;;;;;;5047485;28;20029;-68
2022/04/23 08:05:31;;;;;;;1.50;0.82;;;20.30;55.30;;;;;;5060480;28;20143;-68
2022/04/23 08:07:58;;;;;;;2.03;1.00;;;20.20;51.30;;;;;;5052215;28;20068;-67
2022/04/23 08:10:24;;;;;;;0.63;0.22;;;19.50;49.80;;;;;;5049496;28;20512;-68
2022/04/23 08:12:49;;;;;;;2.63;0.90;;;19.70;51.00;;;;;;5051366;28;20120;-74
2022/04/23 08:15:15;;;;;;;1.88;0.82;;;19.90;49.80;;;;;;5039523;28;20388;-75
2022/04/23 08:17:41;;;;;;;1.27;0.47;;;20.90;48.90;;;;;;5038292;28;20087;-75
2022/04/23 08:20:08;;;;;;;1.25;0.63;;;19.60;47.90;;;;;;5038431;28;20041;-69
2022/04/23 08:22:35;;;;;;;0.65;0.20;;;19.70;48.40;;;;;;5042436;28;20045;-68
2022/04/23 08:25:01;;;;;;;1.60;0.70;;;18.70;48.60;;;;;;5048330;28;20029;-68
2022/04/23 08:27:27;;;;;;;1.13;0.47;;;19.00;50.10;;;;;;5052927;28;20033;-68
2022/04/23 08:32:37;;;;;;;1.55;0.75;;;20.10;49.50;;;;;;5047448;28;20048;-68
2022/04/23 08:35:06;;;;;;;2.03;0.63;;;19.00;47.80;;;;;;5049499;28;20033;-68
2022/04/23 08:37:33;;;;;;;1.08;0.30;;;18.80;48.30;;;;;;5039126;28;20029;-67
2022/04/23 08:39:59;;;;;;;0.63;0.20;;;19.00;51.00;;;;;;5046119;28;20033;-68
2022/04/23 08:42:25;;;;;;;0.75;0.30;;;19.50;48.90;;;;;;5048302;28;20096;-69
2022/04/23 08:44:53;;;;;;;2.38;1.27;;;19.20;48.30;;;;;;5044071;28;20021;-68
2022/04/23 08:47:23;;;;;;;2.88;0.50;;;19.80;49.10;;;;;;5050410;28;20100;-68
2022/04/23 08:49:54;;;;;;;1.05;0.52;;;21.10;47.00;;;;;;5043028;28;20033;-68
2022/04/23 08:52:33;;;;;;;0.57;0.30;;;21.20;47.10;;;;;;5046457;28;20496;-69
2022/04/23 08:55:00;;;;;;;1.08;0.30;;;21.10;45.20;;;;;;5044526;28;20044;-68
2022/04/23 08:57:26;;;;;;;0.57;0.20;;;20.70;44.90;;;;;;5044783;28;20085;-69
2022/04/23 08:59:56;;;;;;;0.55;0.30;;;20.70;44.90;;;;;;5049314;28;20049;-69
2022/04/23 09:02:26;;;;;;;2.72;0.90;;;19.90;45.60;;;;;;5046382;28;20037;-68
2022/04/23 09:04:54;;;;;;;0.82;0.28;;;18.70;46.10;;;;;;5046527;28;20098;-68
2022/04/23 09:07:28;;;;;;;1.80;0.93;;;19.00;48.30;;;;;;5039020;28;20037;-68
2022/04/23 09:09:56;;;;;;;0.55;0.30;;;19.10;51.10;;;;;;5038245;28;20031;-68
2022/04/23 09:12:26;;;;;;;0.85;0.35;;;19.00;49.20;;;;;;5040754;28;20037;-68
2022/04/23 09:14:53;;;;;;;0.80;0.40;;;18.40;50.70;;;;;;5041787;28;20025;-68
2022/04/23 09:25:40;;;;;;;1.38;0.50;;;18.30;53.00;;;;;;5042944;28;20147;-68
2022/04/23 09:28:20;;;;;;;0.50;0.22;;;18.50;53.60;;;;;;5041383;28;20045;-68
2022/04/23 09:30:50;;;;;;;0.90;0.30;;;18.60;53.20;;;;;;5039519;28;20121;-69
2022/04/23 09:33:27;;;;;;;0.30;0.10;;;18.50;53.40;;;;;;5045011;28;20090;-68
2022/04/23 09:35:59;;;;;;;1.77;0.55;;;18.30;52.70;;;;;;5044078;28;20823;-67
2022/04/23 09:38:26;;;;;;;0.70;0.20;;;18.10;52.90;;;;;;5043790;28;20757;-68
2022/04/23 09:40:56;;;;;;;1.45;0.80;;;18.70;58.60;;;;;;5042269;28;20076;-68
2022/04/23 09:43:32;;;;;;;0.17;0.13;;;18.90;53.80;;;;;;5044113;28;20020;-68
2022/04/23 09:46:06;;;;;;;0.98;0.77;;;19.40;52.90;;;;;;5048006;28;20025;-68
2022/04/23 09:48:32;;;;;;;8.30;1.17;;;19.90;51.40;;;;;;5040815;28;20037;-69
2022/04/23 09:50:58;;;;;;;1.17;0.38;;;20.30;49.60;;;;;;5040119;28;20029;-69
2022/04/23 09:53:28;;;;;;;1.95;0.28;;;20.70;47.00;;;;;;5042577;28;20033;-69
2022/04/23 09:56:01;;;;;;;0.68;0.38;;;20.60;46.00;;;;;;5038861;28;20102;-69
2022/04/23 09:58:29;;;;;;;1.00;0.38;;;20.90;46.00;;;;;;5038871;28;20044;-69
2022/04/23 10:00:56;;;;;;;1.30;0.63;;;20.50;46.40;;;;;;5045487;28;20052;-69
2022/04/23 10:03:29;;;;;;;0.45;0.17;;;19.80;47.50;;;;;;5044867;28;20028;-69
2022/04/23 10:05:55;;;;;;;2.08;1.17;;;21.20;46.50;;;;;;5041174;28;20052;-69
2022/04/23 10:08:26;;;;;;;0.55;0.20;;;21.60;45.20;;;;;;5039599;28;20056;-68
2022/04/23 10:10:59;;;;;;;0.22;0.10;;;23.40;47.30;;;;;;5039889;28;20036;-68
2022/04/23 10:13:30;;;;;;;0.30;0.10;;;21.50;41.60;;;;;;5040191;28;20048;-68
2022/04/23 10:15:58;;;;;;;1.20;0.57;;;22.20;43.40;;;;;;5047699;28;20036;-68
2022/04/23 10:18:24;;;;;;;0.65;0.35;;;22.30;42.40;;;;;;5043154;28;20029;-69
2022/04/23 10:21:02;;;;;;;0.75;0.20;;;22.70;44.30;;;;;;5040751;28;20045;-68
2022/04/23 10:23:48;;;;;;;0.45;0.30;;;22.50;42.20;;;;;;5044084;28;20413;-68
2022/04/23 10:26:34;;;;;;;0.98;0.65;;;23.20;43.10;;;;;;5039836;28;20037;-68
2022/04/23 10:29:05;;;;;;;0.38;0.17;;;24.30;41.20;;;;;;5039767;28;20040;-73
2022/04/23 10:31:31;;;;;;;0.73;0.20;;;22.60;40.40;;;;;;5039118;28;20030;-69
2022/04/23 10:33:57;;;;;;;1.48;0.47;;;22.30;40.80;;;;;;5043531;28;20040;-68
2022/04/23 10:36:23;;;;;;;0.63;0.32;;;23.40;43.20;;;;;;5041407;28;20037;-68
2022/04/23 10:39:10;;;;;;;0.52;0.30;;;23.90;40.30;;;;;;5044594;28;20056;-68
2022/04/23 10:41:35;;;;;;;0.08;0.05;;;22.60;41.30;;;;;;5041942;28;20106;-68
2022/04/23 10:44:05;;;;;;;0.15;0.13;;;22.70;40.70;;;;;;5041918;28;20637;-68
2022/04/23 10:46:45;;;;;;;0.43;0.28;;;21.90;42.20;;;;;;5042197;28;20029;-80
2022/04/23 10:49:20;;;;;;;0.22;0.10;;;22.40;41.20;;;;;;5045121;28;20037;-69
2022/04/23 10:51:47;;;;;;;0.65;0.30;;;22.20;42.60;;;;;;5040955;28;20150;-68
2022/04/23 10:54:12;;;;;;;0.65;0.20;;;21.60;40.70;;;;;;5043646;28;20044;-68
2022/04/23 10:56:38;;;;;;;0.93;0.63;;;21.80;44.20;;;;;;5044477;28;20033;-68
2022/04/23 10:59:04;;;;;;;1.60;0.70;;;23.70;44.50;;;;;;5043531;28;21899;-66
2022/04/23 11:01:30;;;;;;;0.52;0.43;;;22.80;40.90;;;;;;5042409;28;20583;-68
2022/04/23 11:03:59;;;;;;;0.20;0.20;;;22.40;42.00;;;;;;5043435;28;20013;-68
2022/04/23 11:12:27;;;;;;;0.55;0.30;;;21.60;41.90;;;;;;5043901;28;20036;-67
2022/04/23 11:14:55;;;;;;;1.48;0.95;;;20.70;42.40;;;;;;5045814;28;20041;-67
2022/04/23 11:17:45;;;;;;;1.48;0.57;;;21.40;43.70;;;;;;5049082;28;20060;-70
2022/04/23 11:20:11;;;;;;;0.57;0.40;;;20.90;42.10;;;;;;5063084;28;20049;-69
2022/04/23 11:22:37;;;;;;;1.00;0.65;;;21.50;43.50;;;;;;5063474;28;20047;-70
2022/04/23 11:25:04;;;;;;;0.10;0.10;;;21.10;42.40;;;;;;5056369;28;20021;-70
2022/04/23 11:27:40;;;;;;;0.47;0.17;;;21.40;42.20;;;;;;5043827;28;20052;-70
2022/04/23 11:30:06;;;;;;;0.57;0.50;;;22.10;42.80;;;;;;5047639;28;20073;-70
2022/04/23 11:32:34;;;;;;;0.25;0.13;;;21.40;41.40;;;;;;5041363;28;20030;-70
2022/04/23 11:35:01;;;;;;;0.10;0.10;;;21.20;44.60;;;;;;5043150;28;20040;-70
2022/04/23 11:37:31;;;;;;;0.52;0.20;;;21.50;42.70;;;;;;5060265;28;20048;-70
2022/04/23 11:40:28;;;;;;;0.20;0.20;;;22.30;41.70;;;;;;5062957;28;20040;-69
2022/04/23 11:42:54;;;;;;;0.25;0.17;;;23.10;42.40;;;;;;5043724;28;20051;-70
2022/04/23 11:45:20;;;;;;;0.47;0.20;;;22.60;39.90;;;;;;5046365;28;20483;-70
2022/04/23 11:47:46;;;;;;;1.10;0.28;;;22.20;40.90;;;;;;5049252;28;20033;-70
2022/04/23 11:50:16;;;;;;;1.65;0.57;;;21.70;40.90;;;;;;5041503;28;20056;-70
2022/04/23 11:52:44;;;;;;;0.20;0.10;;;21.40;41.30;;;;;;5060302;28;20111;-70
2022/04/23 11:55:24;;;;;;;0.50;0.20;;;22.80;42.10;;;;;;5060442;28;20021;-70
2022/04/23 11:57:54;;;;;;;0.55;0.28;;;23.30;41.90;;;;;;5041615;28;20053;-70
2022/04/23 12:00:21;;;;;;;0.32;0.20;;;22.30;40.20;;;;;;5043020;28;20085;-70
2022/04/23 12:02:46;;;;;;;0.45;0.22;;;21.60;38.80;;;;;;5045400;28;20021;-70
2022/04/23 12:05:12;;;;;;;0.40;0.17;;;21.50;40.30;;;;;;5033361;28;20064;-70
2022/04/23 12:07:37;;;;;;;0.40;0.20;;;20.70;40.10;;;;;;5048445;28;20029;-69
2022/04/23 12:10:04;;;;;;;1.02;0.43;;;20.70;40.30;;;;;;5056077;28;20113;-70
2022/04/23 12:12:31;;;;;;;0.65;0.20;;;22.00;43.30;;;;;;5061214;28;20051;-70
2022/04/23 12:15:04;;;;;;;0.68;0.50;;;21.10;41.40;;;;;;5059099;28;20056;-69
2022/04/23 12:17:31;;;;;;;0.30;0.10;;;21.00;41.90;;;;;;5060273;28;20037;-70
2022/04/23 12:20:09;;;;;;;0.15;0.10;;;20.80;40.30;;;;;;5050141;28;20144;-70
2022/04/23 12:22:35;;;;;;;0.15;0.10;;;21.10;41.30;;;;;;5041375;28;20061;-69
2022/04/23 12:25:09;;;;;;;0.10;0.08;;;21.40;39.90;;;;;;5042346;28;20087;-69
2022/04/23 12:27:54;;;;;;;0.10;0.10;;;22.00;42.00;;;;;;5053497;28;20048;-69
2022/04/23 12:42:10;;;;;;;0.10;0.10;;;22.10;40.70;;;;;;5042355;28;20052;-70
2022/04/23 12:44:40;;;;;;;0.85;0.47;;;22.30;39.00;;;;;;5041540;28;20022;-70
2022/04/23 12:47:08;;;;;;;0.30;0.20;;;21.70;38.20;;;;;;5043875;28;20034;-70
2022/04/23 12:49:48;;;;;;;0.50;0.40;;;21.80;39.00;;;;;;5058120;28;20017;-70
2022/04/23 12:52:20;;;;;;;0.80;0.50;;;20.70;38.40;;;;;;5080197;28;20389;-70
2022/04/23 12:55:14;;;;;;;1.45;1.15;;;20.80;39.80;;;;;;5059595;28;20033;-70
2022/04/23 12:57:40;;;;;;;0.20;0.10;;;21.00;39.30;;;;;;5059592;28;20453;-70
2022/04/23 13:00:07;;;;;;;0.70;0.28;;;20.40;38.10;;;;;;5061866;28;20057;-70
2022/04/23 13:02:36;;;;;;;0.98;0.85;;;20.50;39.80;;;;;;5064366;28;20037;-70
2022/04/23 13:05:03;;;;;;;0.10;0.10;;;20.60;39.00;;;;;;5066274;28;20032;-70
2022/04/23 13:10:13;;;;;;;0.45;0.20;;;20.50;38.40;;;;;;5053738;28;20047;-70
2022/04/23 13:12:39;;;;;;;0.73;0.30;;;20.80;38.70;;;;;;5065258;28;20052;-70
2022/04/23 13:15:05;;;;;;;0.25;0.20;;;20.80;38.90;;;;;;5064464;28;20054;-70
2022/04/23 13:17:31;;;;;;;4.05;0.55;;;21.20;37.00;;;;;;5063400;28;20072;-70
2022/04/23 13:19:56;;;;;;;0.40;0.20;;;20.00;37.40;;;;;;5062120;28;20051;-70
2022/04/23 13:22:22;;;;;;;0.10;0.10;;;20.10;38.90;;;;;;5064868;28;20029;-70
2022/04/23 13:24:48;;;;;;;3.60;0.70;;;20.40;38.80;;;;;;5064491;28;20033;-70
2022/04/23 13:27:14;;;;;;;0.90;0.63;;;20.70;39.00;;;;;;5062346;28;20089;-70
2022/04/23 13:29:40;;;;;;;0.10;0.10;;;20.20;38.60;;;;;;5046215;28;20060;-74
2022/04/23 13:32:06;;;;;;;0.95;0.25;;;20.40;39.10;;;;;;5049746;28;20025;-69
2022/04/23 13:34:32;;;;;;;1.10;0.40;;;20.50;39.10;;;;;;5052137;28;20034;-69